createdAt,value
2017-06-26T00:00:20.941Z,18.47
2017-06-26T00:02:22.512Z,18.49
2017-06-26T00:04:24.140Z,18.40
2017-06-26T00:06:25.741Z,18.31
2017-06-26T00:08:27.356Z,18.07
2017-06-26T00:10:28.982Z,18.18
2017-06-26T00:12:30.549Z,17.99
2017-06-26T00:14:32.133Z,17.85
2017-06-26T00:16:33.747Z,17.79
2017-06-26T00:18:35.206Z,17.76
2017-06-26T00:20:37.447Z,17.82
2017-06-26T00:22:39.628Z,17.78
2017-06-26T00:24:41.849Z,17.71
2017-06-26T00:26:43.966Z,17.66
2017-06-26T00:28:46.216Z,17.73
2017-06-26T00:30:47.897Z,17.55
2017-06-26T00:32:49.694Z,17.55
2017-06-26T00:34:51.732Z,17.57
2017-06-26T00:36:53.879Z,17.69
2017-06-26T00:38:56.570Z,17.67
2017-06-26T00:40:58.362Z,17.66
2017-06-26T00:43:00.131Z,17.70
2017-06-26T00:45:01.914Z,17.69
2017-06-26T00:47:04.146Z,17.62
2017-06-26T00:49:05.791Z,17.69
2017-06-26T00:51:07.834Z,17.69
2017-06-26T00:53:09.602Z,17.78
2017-06-26T00:55:11.581Z,17.73
2017-06-26T00:57:13.568Z,17.71
2017-06-26T00:59:15.424Z,17.74
2017-06-26T01:01:17.269Z,17.66
2017-06-26T01:03:19.361Z,17.57
2017-06-26T01:05:21.213Z,17.64
2017-06-26T01:07:23.049Z,17.51
2017-06-26T01:09:24.740Z,17.54
2017-06-26T01:11:26.887Z,17.71
2017-06-26T01:13:28.617Z,17.82
2017-06-26T01:15:30.548Z,17.82
2017-06-26T01:17:32.713Z,17.78
2017-06-26T01:19:34.561Z,17.73
2017-06-26T01:21:37.025Z,17.81
2017-06-26T01:23:39.211Z,17.78
2017-06-26T01:25:40.910Z,17.82
2017-06-26T01:27:42.937Z,17.74
2017-06-26T01:29:44.732Z,17.94
2017-06-26T01:31:46.461Z,18.02
2017-06-26T01:33:48.110Z,18.12
2017-06-26T01:35:49.824Z,18.28
2017-06-26T01:37:51.546Z,18.42
2017-06-26T01:39:53.356Z,18.46
2017-06-26T01:41:55.068Z,18.58
2017-06-26T01:43:56.878Z,18.55
2017-06-26T01:45:58.924Z,18.46
2017-06-26T01:48:00.720Z,18.65
2017-06-26T01:50:02.553Z,18.52
2017-06-26T01:52:04.844Z,18.64
2017-06-26T01:54:06.604Z,18.61
2017-06-26T01:56:08.543Z,18.49
2017-06-26T01:58:10.302Z,18.47
2017-06-26T02:00:12.261Z,18.50
2017-06-26T02:02:13.913Z,18.54
2017-06-26T02:04:15.649Z,18.49
2017-06-26T02:06:17.634Z,18.37
2017-06-26T02:08:19.361Z,18.36
2017-06-26T02:10:21.468Z,18.21
2017-06-26T02:12:23.821Z,18.21
2017-06-26T02:14:25.529Z,18.24
2017-06-26T02:16:27.245Z,18.22
2017-06-26T02:18:29.555Z,18.21
2017-06-26T02:20:31.256Z,18.19
2017-06-26T02:22:33.593Z,18.28
2017-06-26T02:24:35.352Z,18.10
2017-06-26T02:26:37.464Z,18.31
2017-06-26T02:28:39.764Z,18.29
2017-06-26T02:30:41.515Z,18.33
2017-06-26T02:32:43.536Z,18.27
2017-06-26T02:34:45.268Z,18.27
2017-06-26T02:36:47.056Z,18.18
2017-06-26T02:38:48.743Z,18.10
2017-06-26T02:40:50.496Z,18.18
2017-06-26T02:42:52.782Z,18.09
2017-06-26T02:44:54.561Z,17.99
2017-06-26T02:46:56.509Z,18.06
2017-06-26T02:48:58.241Z,18.03
2017-06-26T02:50:59.927Z,18.12
2017-06-26T02:53:01.747Z,18.22
2017-06-26T02:55:03.572Z,18.24
2017-06-26T02:57:05.257Z,18.36
2017-06-26T02:59:07.317Z,18.44
2017-06-26T03:01:09.007Z,18.39
2017-06-26T03:03:11.274Z,18.44
2017-06-26T03:05:13.017Z,18.52
2017-06-26T03:07:14.790Z,18.42
2017-06-26T03:09:16.851Z,18.52
2017-06-26T03:11:18.916Z,18.39
2017-06-26T03:13:20.893Z,18.31
2017-06-26T03:15:23.128Z,18.34
2017-06-26T03:17:24.720Z,18.39
2017-06-26T03:19:26.277Z,18.37
2017-06-26T03:21:27.800Z,18.36
2017-06-26T03:23:29.502Z,18.21
2017-06-26T03:25:31.025Z,18.28
2017-06-26T03:27:32.512Z,18.31
2017-06-26T03:29:34.127Z,18.37
2017-06-26T03:31:35.670Z,18.29
2017-06-26T03:33:37.292Z,18.22
2017-06-26T03:35:38.912Z,18.34
2017-06-26T03:37:40.518Z,18.37
2017-06-26T03:39:42.088Z,18.42
2017-06-26T03:41:43.682Z,18.34
2017-06-26T03:43:45.267Z,18.34
2017-06-26T03:45:46.917Z,18.33
2017-06-26T03:47:48.429Z,18.29
2017-06-26T03:49:49.938Z,18.33
2017-06-26T03:51:51.487Z,18.43
2017-06-26T03:53:53.084Z,18.46
2017-06-26T03:55:54.635Z,18.47
2017-06-26T03:57:56.179Z,18.39
2017-06-26T03:59:57.737Z,18.37
2017-06-26T04:01:59.507Z,18.46
2017-06-26T04:04:01.295Z,18.55
2017-06-26T04:06:03.221Z,18.33
2017-06-26T04:08:05.295Z,18.13
2017-06-26T04:10:07.038Z,18.17
2017-06-26T04:12:08.782Z,18.17
2017-06-26T04:14:10.526Z,18.12
2017-06-26T04:16:12.303Z,18.07
2017-06-26T04:18:14.453Z,18.07
2017-06-26T04:20:16.556Z,17.91
2017-06-26T04:22:18.273Z,17.82
2017-06-26T04:24:20.305Z,17.81
2017-06-26T04:26:22.083Z,17.99
2017-06-26T04:28:24.101Z,17.91
2017-06-26T04:30:26.116Z,17.74
2017-06-26T04:32:27.782Z,17.76
2017-06-26T04:34:29.798Z,17.67
2017-06-26T04:36:31.867Z,17.82
2017-06-26T04:38:33.772Z,17.79
2017-06-26T04:40:36.337Z,17.79
2017-06-26T04:42:38.518Z,17.79
2017-06-26T04:44:40.264Z,18.03
2017-06-26T04:46:42.009Z,17.76
2017-06-26T04:48:43.710Z,18.03
2017-06-26T04:50:45.466Z,17.91
2017-06-26T04:52:47.475Z,18.03
2017-06-26T04:54:49.147Z,17.95
2017-06-26T04:56:50.891Z,18.02
2017-06-26T04:58:52.654Z,18.07
2017-06-26T05:00:54.408Z,18.04
2017-06-26T05:02:57.315Z,18.21
2017-06-26T05:04:58.960Z,18.19
2017-06-26T05:07:01.162Z,18.22
2017-06-26T05:09:02.854Z,18.40
2017-06-26T05:11:04.960Z,18.49
2017-06-26T05:13:06.703Z,18.37
2017-06-26T05:15:08.462Z,18.42
2017-06-26T05:17:10.163Z,18.33
2017-06-26T05:19:12.128Z,18.44
2017-06-26T05:21:13.924Z,18.52
2017-06-26T05:23:15.695Z,18.50
2017-06-26T05:25:17.489Z,18.61
2017-06-26T05:27:19.147Z,18.74
2017-06-26T05:29:21.270Z,18.95
2017-06-26T05:31:23.347Z,18.92
2017-06-26T05:33:25.318Z,18.86
2017-06-26T05:35:27.120Z,18.79
2017-06-26T05:37:28.936Z,18.61
2017-06-26T05:39:30.903Z,18.62
2017-06-26T05:41:33.100Z,18.50
2017-06-26T05:43:34.919Z,18.74
2017-06-26T05:45:36.594Z,18.68
2017-06-26T05:47:38.601Z,18.83
2017-06-26T05:49:40.577Z,18.94
2017-06-26T05:51:42.392Z,19.05
2017-06-26T05:53:44.141Z,19.28
2017-06-26T05:55:45.967Z,19.51
2017-06-26T05:57:47.657Z,19.79
2017-06-26T05:59:49.413Z,19.70
2017-06-26T06:01:51.156Z,19.72
2017-06-26T06:03:53.142Z,19.58
2017-06-26T06:05:54.900Z,19.87
2017-06-26T06:07:56.524Z,19.91
2017-06-26T06:09:58.510Z,19.98
2017-06-26T06:12:00.084Z,20.18
2017-06-26T06:14:01.636Z,20.49
2017-06-26T06:16:03.325Z,20.61
2017-06-26T06:18:05.260Z,20.39
2017-06-26T06:20:07.075Z,20.28
2017-06-26T06:22:08.667Z,20.02
2017-06-26T06:24:10.223Z,19.88
2017-06-26T06:26:11.744Z,19.72
2017-06-26T06:28:13.858Z,19.57
2017-06-26T06:30:15.660Z,19.55
2017-06-26T06:32:17.370Z,19.63
2017-06-26T06:34:19.044Z,19.55
2017-06-26T06:36:20.920Z,19.63
2017-06-26T06:38:22.780Z,19.57
2017-06-26T06:40:24.685Z,19.55
2017-06-26T06:42:26.209Z,19.36
2017-06-26T06:44:27.707Z,19.38
2017-06-26T06:46:29.256Z,19.40
2017-06-26T06:48:30.841Z,19.42
2017-06-26T06:50:32.374Z,19.48
2017-06-26T06:52:33.952Z,19.63
2017-06-26T06:54:35.505Z,19.78
2017-06-26T06:56:37.010Z,19.83
2017-06-26T06:58:38.449Z,19.97
2017-06-26T07:00:39.976Z,19.95
2017-06-26T07:02:41.462Z,20.00
2017-06-26T07:04:43.026Z,20.12
2017-06-26T07:06:44.565Z,20.15
2017-06-26T07:08:46.069Z,20.23
2017-06-26T07:10:47.588Z,20.28
2017-06-26T07:12:49.115Z,20.41
2017-06-26T07:14:50.627Z,20.49
2017-06-26T07:16:52.133Z,20.51
2017-06-26T07:18:53.737Z,20.50
2017-06-26T07:20:55.252Z,20.54
2017-06-26T07:22:56.815Z,20.46
2017-06-26T07:24:58.342Z,20.50
2017-06-26T07:26:59.851Z,20.53
2017-06-26T07:29:01.325Z,20.69
2017-06-26T07:31:02.899Z,20.66
2017-06-26T07:33:04.376Z,20.47
2017-06-26T07:35:05.916Z,20.47
2017-06-26T07:37:07.379Z,20.54
2017-06-26T07:39:08.931Z,20.65
2017-06-26T07:41:10.790Z,20.64
2017-06-26T07:43:12.377Z,20.66
2017-06-26T07:45:14.240Z,20.89
2017-06-26T07:47:16.414Z,20.98
2017-06-26T07:49:18.006Z,21.09
2017-06-26T07:51:19.709Z,21.05
2017-06-26T07:53:21.353Z,20.90
2017-06-26T07:55:23.202Z,20.98
2017-06-26T07:57:24.996Z,20.86
2017-06-26T07:59:26.560Z,20.95
2017-06-26T08:01:28.043Z,20.66
2017-06-26T08:03:29.586Z,20.71
2017-06-26T08:05:31.195Z,20.71
2017-06-26T08:07:33.054Z,20.65
2017-06-26T08:09:34.886Z,20.68
2017-06-26T08:11:36.702Z,20.62
2017-06-26T08:13:38.468Z,20.50
2017-06-26T08:15:40.256Z,20.62
2017-06-26T08:17:42.076Z,20.47
2017-06-26T08:19:43.867Z,20.65
2017-06-26T08:21:45.716Z,20.87
2017-06-26T08:23:47.271Z,21.11
2017-06-26T08:25:48.929Z,21.35
2017-06-26T08:27:50.849Z,21.34
2017-06-26T08:29:53.139Z,21.13
2017-06-26T08:31:55.369Z,21.53
2017-06-26T08:33:56.934Z,21.51
2017-06-26T08:35:58.634Z,21.61
2017-06-26T08:38:00.427Z,21.71
2017-06-26T08:40:02.302Z,21.72
2017-06-26T08:42:04.270Z,21.67
2017-06-26T08:44:06.114Z,21.45
2017-06-26T08:46:07.937Z,21.57
2017-06-26T08:48:09.419Z,21.51
2017-06-26T08:50:10.912Z,21.41
2017-06-26T08:52:12.410Z,21.30
2017-06-26T08:54:13.981Z,20.89
2017-06-26T08:56:15.500Z,21.14
2017-06-26T08:58:16.999Z,21.35
2017-06-26T09:00:18.603Z,21.23
2017-06-26T09:02:20.442Z,21.46
2017-06-26T09:04:21.933Z,21.48
2017-06-26T09:06:23.444Z,21.45
2017-06-26T09:08:24.991Z,21.67
2017-06-26T09:10:26.498Z,21.95
2017-06-26T09:12:27.944Z,22.41
2017-06-26T09:14:29.368Z,22.44
2017-06-26T09:16:30.812Z,22.68
2017-06-26T09:18:32.250Z,22.99
2017-06-26T09:20:33.774Z,23.26
2017-06-26T09:22:35.589Z,23.15
2017-06-26T09:24:37.087Z,23.29
2017-06-26T09:26:39.061Z,23.45
2017-06-26T09:28:40.540Z,23.64
2017-06-26T09:30:41.999Z,23.58
2017-06-26T09:32:43.468Z,23.58
2017-06-26T09:34:45.011Z,23.50
2017-06-26T09:36:46.522Z,23.46
2017-06-26T09:38:48.148Z,23.45
2017-06-26T09:40:50.144Z,23.49
2017-06-26T09:42:51.954Z,23.55
2017-06-26T09:44:53.488Z,23.61
2017-06-26T09:46:55.159Z,23.83
2017-06-26T09:48:56.748Z,23.90
2017-06-26T09:50:58.480Z,24.14
2017-06-26T09:52:59.977Z,24.02
2017-06-26T09:55:01.451Z,23.90
2017-06-26T09:57:03.252Z,23.77
2017-06-26T09:59:05.043Z,23.67
2017-06-26T10:01:06.589Z,23.64
2017-06-26T10:03:08.138Z,23.68
2017-06-26T10:05:09.634Z,23.46
2017-06-26T10:07:11.174Z,23.57
2017-06-26T10:09:12.687Z,23.58
2017-06-26T10:11:14.436Z,23.70
2017-06-26T10:13:16.452Z,23.70
2017-06-26T10:15:17.949Z,23.71
2017-06-26T10:17:19.519Z,23.62
2017-06-26T10:19:21.309Z,23.39
2017-06-26T10:21:23.200Z,23.68
2017-06-26T10:23:24.698Z,23.97
2017-06-26T10:25:26.865Z,24.04
2017-06-26T10:27:28.419Z,24.13
2017-06-26T10:29:30.278Z,24.12
2017-06-26T10:31:32.213Z,24.07
2017-06-26T10:33:33.793Z,24.07
2017-06-26T10:35:35.337Z,24.23
2017-06-26T10:37:37.015Z,24.52
2017-06-26T10:39:38.665Z,24.23
2017-06-26T10:41:40.202Z,23.92
2017-06-26T10:43:41.681Z,24.01
2017-06-26T10:45:43.218Z,24.04
2017-06-26T10:47:44.805Z,23.71
2017-06-26T10:49:46.345Z,23.64
2017-06-26T10:51:48.001Z,23.53
2017-06-26T10:53:49.727Z,23.53
2017-06-26T10:55:51.225Z,23.62
2017-06-26T10:57:52.779Z,23.45
2017-06-26T10:59:54.345Z,23.67
2017-06-26T11:01:55.870Z,23.90
2017-06-26T11:03:57.478Z,23.82
2017-06-26T11:05:59.056Z,24.12
2017-06-26T11:08:00.650Z,24.23
2017-06-26T11:10:02.432Z,24.34
2017-06-26T11:12:03.952Z,24.75
2017-06-26T11:14:05.474Z,24.77
2017-06-26T11:16:07.002Z,24.83
2017-06-26T11:18:08.601Z,24.71
2017-06-26T11:20:10.278Z,24.50
2017-06-26T11:22:11.899Z,24.19
2017-06-26T11:24:13.425Z,23.97
2017-06-26T11:26:15.182Z,23.76
2017-06-26T11:28:17.015Z,24.00
2017-06-26T11:30:19.016Z,24.12
2017-06-26T11:32:20.868Z,24.24
2017-06-26T11:34:22.731Z,24.63
2017-06-26T11:36:25.152Z,24.75
2017-06-26T11:38:27.129Z,24.88
2017-06-26T11:40:29.099Z,24.95
2017-06-26T11:42:31.021Z,25.02
2017-06-26T11:44:32.856Z,25.02
2017-06-26T11:46:34.736Z,24.97
2017-06-26T11:48:36.538Z,25.12
2017-06-26T11:50:38.434Z,25.25
2017-06-26T11:52:40.739Z,25.50
2017-06-26T11:54:42.648Z,25.19
2017-06-26T11:56:44.623Z,24.80
2017-06-26T11:58:46.629Z,24.67
2017-06-26T12:00:48.462Z,24.90
2017-06-26T12:02:50.368Z,24.98
2017-06-26T12:04:52.180Z,25.22
2017-06-26T12:06:53.938Z,25.46
2017-06-26T12:08:56.109Z,25.65
2017-06-26T12:10:57.625Z,25.32
2017-06-26T12:12:59.415Z,25.00
2017-06-26T12:15:00.911Z,25.15
2017-06-26T12:17:02.720Z,25.02
2017-06-26T12:19:04.557Z,24.91
2017-06-26T12:21:07.383Z,24.80
2017-06-26T12:23:08.973Z,24.82
2017-06-26T12:25:10.884Z,25.13
2017-06-26T12:27:12.426Z,25.43
2017-06-26T12:29:14.230Z,25.67
2017-06-26T12:31:16.231Z,25.80
2017-06-26T12:33:17.560Z,26.04
2017-06-26T12:35:19.428Z,25.98
2017-06-26T12:37:21.186Z,25.62
2017-06-26T12:39:22.803Z,25.30
2017-06-26T12:41:24.384Z,25.52
2017-06-26T12:43:25.945Z,25.83
2017-06-26T12:45:27.760Z,25.93
2017-06-26T12:47:29.366Z,25.74
2017-06-26T12:49:30.953Z,25.53
2017-06-26T12:51:32.533Z,25.43
2017-06-26T12:53:34.089Z,25.61
2017-06-26T12:55:35.670Z,25.68
2017-06-26T12:57:37.249Z,25.90
2017-06-26T12:59:38.823Z,25.97
2017-06-26T13:01:40.437Z,25.91
2017-06-26T13:03:42.016Z,26.11
2017-06-26T13:05:43.921Z,26.20
2017-06-26T13:07:45.690Z,26.18
2017-06-26T13:09:47.549Z,26.22
2017-06-26T13:11:49.309Z,25.97
2017-06-26T13:13:50.892Z,25.97
2017-06-26T13:15:52.697Z,26.12
2017-06-26T13:17:54.280Z,26.28
2017-06-26T13:19:55.866Z,26.49
2017-06-26T13:21:57.471Z,26.39
2017-06-26T13:23:58.988Z,26.27
2017-06-26T13:26:00.617Z,26.01
2017-06-26T13:28:02.270Z,25.87
2017-06-26T13:30:03.922Z,25.62
2017-06-26T13:32:05.566Z,25.50
2017-06-26T13:34:07.099Z,25.52
2017-06-26T13:36:08.654Z,25.30
2017-06-26T13:38:10.394Z,25.31
2017-06-26T13:40:11.931Z,25.20
2017-06-26T13:42:13.621Z,25.24
2017-06-26T13:44:15.351Z,25.17
2017-06-26T13:46:16.978Z,25.00
2017-06-26T13:48:18.534Z,24.67
2017-06-26T13:50:20.186Z,24.47
2017-06-26T13:52:21.709Z,24.49
2017-06-26T13:54:23.306Z,24.45
2017-06-26T13:56:24.863Z,24.47
2017-06-26T13:58:26.390Z,24.44
2017-06-26T14:00:27.974Z,24.50
2017-06-26T14:02:29.535Z,24.34
2017-06-26T14:04:31.100Z,24.38
2017-06-26T14:06:32.712Z,24.67
2017-06-26T14:08:34.230Z,24.56
2017-06-26T14:10:35.838Z,24.57
2017-06-26T14:12:37.373Z,24.83
2017-06-26T14:14:38.988Z,25.20
2017-06-26T14:16:40.562Z,25.00
2017-06-26T14:18:42.123Z,24.98
2017-06-26T14:20:43.687Z,24.90
2017-06-26T14:22:45.223Z,24.87
2017-06-26T14:24:46.828Z,24.90
2017-06-26T14:26:48.335Z,25.22
2017-06-26T14:28:49.882Z,25.52
2017-06-26T14:30:51.465Z,25.67
2017-06-26T14:32:52.996Z,25.43
2017-06-26T14:34:54.534Z,25.43
2017-06-26T14:36:56.082Z,25.30
2017-06-26T14:38:57.625Z,25.28
2017-06-26T14:40:59.183Z,25.30
2017-06-26T14:43:00.738Z,25.30
2017-06-26T14:45:02.258Z,25.35
2017-06-26T14:47:03.860Z,25.32
2017-06-26T14:49:05.668Z,24.76
2017-06-26T14:51:07.228Z,24.71
2017-06-26T14:53:08.829Z,24.68
2017-06-26T14:55:10.369Z,24.63
2017-06-26T14:57:11.909Z,24.75
2017-06-26T14:59:13.465Z,24.90
2017-06-26T15:01:14.998Z,25.00
2017-06-26T15:03:16.547Z,25.16
2017-06-26T15:05:18.104Z,25.34
2017-06-26T15:07:19.630Z,25.43
2017-06-26T15:09:21.176Z,25.59
2017-06-26T15:11:22.688Z,25.65
2017-06-26T15:13:24.254Z,25.67
2017-06-26T15:15:25.820Z,25.77
2017-06-26T15:17:27.371Z,25.65
2017-06-26T15:19:28.914Z,25.54
2017-06-26T15:21:30.459Z,25.52
2017-06-26T15:23:32.048Z,25.52
2017-06-26T15:25:33.592Z,25.67
2017-06-26T15:27:35.136Z,25.44
2017-06-26T15:29:36.796Z,25.31
2017-06-26T15:31:38.379Z,25.24
2017-06-26T15:33:39.892Z,25.19
2017-06-26T15:35:41.487Z,25.32
2017-06-26T15:37:43.030Z,25.28
2017-06-26T15:39:44.559Z,25.32
2017-06-26T15:41:46.122Z,25.39
2017-06-26T15:43:47.638Z,25.49
2017-06-26T15:45:49.138Z,25.32
2017-06-26T15:47:50.736Z,25.30
2017-06-26T15:49:52.695Z,25.37
2017-06-26T15:51:55.022Z,25.16
2017-06-26T15:53:57.090Z,24.98
2017-06-26T15:55:58.935Z,24.80
2017-06-26T15:58:00.996Z,24.71
2017-06-26T16:00:02.824Z,24.54
2017-06-26T16:02:04.685Z,24.49
2017-06-26T16:04:06.492Z,24.56
2017-06-26T16:06:08.541Z,24.54
2017-06-26T16:08:10.972Z,24.71
2017-06-26T16:10:12.995Z,24.63
2017-06-26T16:12:15.052Z,24.53
2017-06-26T16:14:16.892Z,24.47
2017-06-26T16:16:18.658Z,24.35
2017-06-26T16:18:20.410Z,24.37
2017-06-26T16:20:22.198Z,24.29
2017-06-26T16:22:24.559Z,24.37
2017-06-26T16:24:27.083Z,24.45
2017-06-26T16:26:29.065Z,24.45
2017-06-26T16:28:31.028Z,24.56
2017-06-26T16:30:32.803Z,24.59
2017-06-26T16:32:34.617Z,24.64
2017-06-26T16:34:36.575Z,24.68
2017-06-26T16:36:38.216Z,24.80
2017-06-26T16:38:39.855Z,24.85
2017-06-26T16:40:41.463Z,24.77
2017-06-26T16:42:43.028Z,24.73
2017-06-26T16:44:44.862Z,24.73
2017-06-26T16:46:46.461Z,24.71
2017-06-26T16:48:48.111Z,24.71
2017-06-26T16:50:49.701Z,24.79
2017-06-26T16:52:51.582Z,24.79
2017-06-26T16:54:53.188Z,24.75
2017-06-26T16:56:55.077Z,24.47
2017-06-26T16:58:57.009Z,24.39
2017-06-26T17:00:58.764Z,24.27
2017-06-26T17:03:00.320Z,24.16
2017-06-26T17:05:03.195Z,24.14
2017-06-26T17:07:04.037Z,24.17
2017-06-26T17:09:06.024Z,24.17
2017-06-26T17:11:07.859Z,24.27
2017-06-26T17:13:09.502Z,24.35
2017-06-26T17:15:11.334Z,24.32
2017-06-26T17:17:12.990Z,24.23
2017-06-26T17:19:15.242Z,24.19
2017-06-26T17:21:17.752Z,24.08
2017-06-26T17:23:18.665Z,23.90
2017-06-26T17:25:20.355Z,23.90
2017-06-26T17:27:22.717Z,23.76
2017-06-26T17:29:24.474Z,23.71
2017-06-26T17:31:26.301Z,23.62
2017-06-26T17:33:28.056Z,23.64
2017-06-26T17:35:29.959Z,23.50
2017-06-26T17:37:31.764Z,23.50
2017-06-26T17:39:34.231Z,23.61
2017-06-26T17:41:35.953Z,23.52
2017-06-26T17:43:37.712Z,23.57
2017-06-26T17:45:39.260Z,23.50
2017-06-26T17:47:41.119Z,23.65
2017-06-26T17:49:42.777Z,23.58
2017-06-26T17:51:44.435Z,23.67
2017-06-26T17:53:46.173Z,23.62
2017-06-26T17:55:48.447Z,23.70
2017-06-26T17:57:50.322Z,23.72
2017-06-26T17:59:52.879Z,23.62
2017-06-26T18:01:55.571Z,23.67
2017-06-26T18:03:57.869Z,23.46
2017-06-26T18:05:59.493Z,23.64
2017-06-26T18:08:02.248Z,23.45
2017-06-26T18:10:03.154Z,23.42
2017-06-26T18:12:04.942Z,23.38
2017-06-26T18:14:06.837Z,23.31
2017-06-26T18:16:08.614Z,23.20
2017-06-26T18:18:10.553Z,23.22
2017-06-26T18:20:12.384Z,23.12
2017-06-26T18:22:13.993Z,23.15
2017-06-26T18:24:15.714Z,23.07
2017-06-26T18:26:17.607Z,23.05
2017-06-26T18:28:19.396Z,22.96
2017-06-26T18:30:21.095Z,22.97
2017-06-26T18:32:22.966Z,22.84
2017-06-26T18:34:24.845Z,22.84
2017-06-26T18:36:27.112Z,22.80
2017-06-26T18:38:28.807Z,22.72
2017-06-26T18:40:30.751Z,22.72
2017-06-26T18:42:32.560Z,22.69
2017-06-26T18:44:34.155Z,22.59
2017-06-26T18:46:35.963Z,22.64
2017-06-26T18:48:37.614Z,22.50
2017-06-26T18:50:39.501Z,22.50
2017-06-26T18:52:41.363Z,22.54
2017-06-26T18:54:43.253Z,22.50
2017-06-26T18:56:45.163Z,22.41
2017-06-26T18:58:46.765Z,22.41
2017-06-26T19:00:48.544Z,22.32
2017-06-26T19:02:50.207Z,22.27
2017-06-26T19:04:52.080Z,22.28
2017-06-26T19:06:53.875Z,22.20
2017-06-26T19:08:55.573Z,22.10
2017-06-26T19:10:57.193Z,22.13
2017-06-26T19:12:59.044Z,22.09
2017-06-26T19:15:00.832Z,21.99
2017-06-26T19:17:02.512Z,21.95
2017-06-26T19:19:04.292Z,21.97
2017-06-26T19:21:06.201Z,21.95
2017-06-26T19:23:08.225Z,21.81
2017-06-26T19:25:10.001Z,21.74
2017-06-26T19:27:11.783Z,21.75
2017-06-26T19:29:13.654Z,21.74
2017-06-26T19:31:15.467Z,21.72
2017-06-26T19:33:17.283Z,21.71
2017-06-26T19:35:19.171Z,21.59
2017-06-26T19:37:20.991Z,21.56
2017-06-26T19:39:22.870Z,21.44
2017-06-26T19:41:24.648Z,21.32
2017-06-26T19:43:26.550Z,21.29
2017-06-26T19:45:28.517Z,21.19
2017-06-26T19:47:30.271Z,21.26
2017-06-26T19:49:31.884Z,21.09
2017-06-26T19:51:33.648Z,21.01
2017-06-26T19:53:35.516Z,20.98
2017-06-26T19:55:37.264Z,20.89
2017-06-26T19:57:39.305Z,20.90
2017-06-26T19:59:41.139Z,20.83
2017-06-26T20:01:43.001Z,20.80
2017-06-26T20:03:45.567Z,20.72
2017-06-26T20:05:47.990Z,20.66
2017-06-26T20:07:49.762Z,20.65
2017-06-26T20:09:51.693Z,20.53
2017-06-26T20:11:54.058Z,20.27
2017-06-26T20:13:56.177Z,20.15
2017-06-26T20:15:58.721Z,20.09
2017-06-26T20:18:00.318Z,20.00
2017-06-26T20:20:01.991Z,19.98
2017-06-26T20:22:04.410Z,20.06
2017-06-26T20:24:06.346Z,20.03
2017-06-26T20:26:08.261Z,19.87
2017-06-26T20:28:09.991Z,19.86
2017-06-26T20:30:11.733Z,19.84
2017-06-26T20:32:13.524Z,19.75
2017-06-26T20:34:15.381Z,19.69
2017-06-26T20:36:17.120Z,19.57
2017-06-26T20:38:18.880Z,19.48
2017-06-26T20:40:20.649Z,19.51
2017-06-26T20:42:22.387Z,19.51
2017-06-26T20:44:24.347Z,19.55
2017-06-26T20:46:26.347Z,19.54
2017-06-26T20:48:28.208Z,19.48
2017-06-26T20:50:29.944Z,19.38
2017-06-26T20:52:31.661Z,19.32
2017-06-26T20:54:33.354Z,19.21
2017-06-26T20:56:35.140Z,19.21
2017-06-26T20:58:36.970Z,19.20
2017-06-26T21:00:38.872Z,19.13
2017-06-26T21:02:40.628Z,19.15
2017-06-26T21:04:42.562Z,19.23
2017-06-26T21:06:44.310Z,19.23
2017-06-26T21:08:46.227Z,19.13
2017-06-26T21:10:48.149Z,19.15
2017-06-26T21:12:50.140Z,19.05
2017-06-26T21:14:52.095Z,19.02
2017-06-26T21:16:53.788Z,19.08
2017-06-26T21:18:55.400Z,18.97
2017-06-26T21:20:57.259Z,18.90
2017-06-26T21:22:59.198Z,18.90
2017-06-26T21:25:01.128Z,18.84
2017-06-26T21:27:03.014Z,18.80
2017-06-26T21:29:04.859Z,18.74
2017-06-26T21:31:06.731Z,18.72
2017-06-26T21:33:08.737Z,18.73
2017-06-26T21:35:10.460Z,18.68
2017-06-26T21:37:12.253Z,18.61
2017-06-26T21:39:14.108Z,18.64
2017-06-26T21:41:15.983Z,18.50
2017-06-26T21:43:17.657Z,18.47
2017-06-26T21:45:19.498Z,18.52
2017-06-26T21:47:21.467Z,18.49
2017-06-26T21:49:23.468Z,18.31
2017-06-26T21:51:25.302Z,18.37
2017-06-26T21:53:27.110Z,18.34
2017-06-26T21:55:29.182Z,18.33
2017-06-26T21:57:31.091Z,18.24
2017-06-26T21:59:32.957Z,18.17
2017-06-26T22:01:34.869Z,18.13
2017-06-26T22:03:36.744Z,18.10
2017-06-26T22:05:38.703Z,17.99
2017-06-26T22:07:40.521Z,18.00
2017-06-26T22:09:42.245Z,17.95
2017-06-26T22:11:44.136Z,17.91
2017-06-26T22:13:46.085Z,17.91
2017-06-26T22:15:47.747Z,17.74
2017-06-26T22:17:49.519Z,17.71
2017-06-26T22:19:51.424Z,17.71
2017-06-26T22:21:53.423Z,17.63
2017-06-26T22:23:55.244Z,17.69
2017-06-26T22:25:57.041Z,17.69
2017-06-26T22:27:58.811Z,17.55
2017-06-26T22:30:00.515Z,17.55
2017-06-26T22:32:02.401Z,17.53
2017-06-26T22:34:04.198Z,17.53
2017-06-26T22:36:05.867Z,17.54
2017-06-26T22:38:07.598Z,17.55
2017-06-26T22:40:09.494Z,17.38
2017-06-26T22:42:11.516Z,17.41
2017-06-26T22:44:13.288Z,17.36
2017-06-26T22:46:15.049Z,17.35
2017-06-26T22:48:16.990Z,17.30
2017-06-26T22:50:18.742Z,17.26
2017-06-26T22:52:20.570Z,17.26
2017-06-26T22:54:22.551Z,17.20
2017-06-26T22:56:24.648Z,17.32
2017-06-26T22:58:27.022Z,17.26
2017-06-26T23:00:28.571Z,17.30
2017-06-26T23:02:30.149Z,17.17
2017-06-26T23:04:31.628Z,17.13
2017-06-26T23:06:33.113Z,17.13
2017-06-26T23:08:34.734Z,17.07
2017-06-26T23:10:36.828Z,16.99
2017-06-26T23:12:38.554Z,17.10
2017-06-26T23:14:40.509Z,16.98
2017-06-26T23:16:42.264Z,16.92
2017-06-26T23:18:43.942Z,16.92
2017-06-26T23:20:45.962Z,16.86
2017-06-26T23:22:47.690Z,16.89
2017-06-26T23:24:49.563Z,16.83
2017-06-26T23:26:51.257Z,16.88
2017-06-26T23:28:52.980Z,16.85
2017-06-26T23:30:54.783Z,16.77
2017-06-26T23:32:56.651Z,16.74
2017-06-26T23:34:58.378Z,16.85
2017-06-26T23:36:59.907Z,16.70
2017-06-26T23:39:01.524Z,16.74
2017-06-26T23:41:03.669Z,16.75
2017-06-26T23:43:05.703Z,16.59
2017-06-26T23:45:07.467Z,16.74
2017-06-26T23:47:09.186Z,16.63
2017-06-26T23:49:11.167Z,16.62
2017-06-26T23:51:13.107Z,16.63
2017-06-26T23:53:15.093Z,16.58
2017-06-26T23:55:16.864Z,16.59
2017-06-26T23:57:18.657Z,16.49
2017-06-26T23:59:20.319Z,16.40
